< < Back
Terminal Aerodrome Forecast


Current Version              Previous Versions:   1  2  3  4  5  6  7  8  9  

Terminal Aerodrome Forecast

797
FTUS44 KBMX 240500
TAFANB
TAF
KANB 240526Z 2406/2506 00000KT P6SM SKC
     FM241600 18006KT P6SM SCT050=

Latest METAR

565
SAUS70 KWBC 240956
MTRANB
METAR KANB 240953Z AUTO 08003KT 10SM CLR 08/07 A2998 RMK AO2 SLP151
T00780067


USA.gov is the U.S. government's official web portal to all federal, state and local government web resources and services.